»·PEaware :: UAL1270 KSFO-KPHX

UAL1270 :: KSFO-KPHX

FLIGHT INFORMATION

Flight Status: Arrived
Operator:
United Airlines
More flights by this operator :: More flights under this callsign
Pilot: Saso K. (7898)
Aircraft: AIRBUS A320
(A320)
More flights by this aircraft type
Origin: KSFO San Francisco Intl
United States
Destination: KPHX Phoenix Sky Harbor Intl
United States
More flights between these airports :: More routes between these airports
Route: +WESLA3 LOSHN BOILE BLH HYDRR1
File this flight plan on PilotEdge
Remarks: EET / KZLA0024 KZAB0105
Altitude:
(Current/Filed)
37,000ft
Speed:
(Current/Filed)
438kts
Departed: 01-Jun-17 12:44 PM
Arrived: 01-Jun-17 02:19 PM
Distance/Time
Traveled:
565nm/1:35
Distance/Time
To Go:
Arrived

Flight Plot

Page will automatically refresh every two minutes.

Flight plan parsing failed; only flown route is shown


Map Options




Map Legend


Flown Route
Filed Route
Departure Airport
Arrival Airport
Navaid (VOR, NDB)
Fix

Horizontal Profiles

Position Reports

Time Latitude Longitude Heading Altitude Ground
Speed
01-Jun-17 12:22 37.619720 -122.388270 26 32ft 0kts
01-Jun-17 12:23 37.619720 -122.388270 26 32ft 0kts
01-Jun-17 12:24 37.619720 -122.388270 26 32ft 0kts
01-Jun-17 12:25 37.619720 -122.388270 26 32ft 0kts
01-Jun-17 12:26 37.619720 -122.388270 26 32ft 0kts
01-Jun-17 12:27 37.619720 -122.388270 26 32ft 0kts
01-Jun-17 12:28 37.619720 -122.388270 26 32ft 0kts
01-Jun-17 12:29 37.619720 -122.388270 26 32ft 0kts
01-Jun-17 12:30 37.619720 -122.388270 26 32ft 0kts
01-Jun-17 12:31 37.619720 -122.388270 26 32ft 0kts
01-Jun-17 12:32 37.619720 -122.388270 26 32ft 0kts
01-Jun-17 12:33 37.619720 -122.388270 26 32ft 0kts
01-Jun-17 12:34 37.619510 -122.388411 29 32ft 2kts
01-Jun-17 12:35 37.618951 -122.388879 39 32ft 2kts
01-Jun-17 12:36 37.618899 -122.388934 42 32ft 0kts
01-Jun-17 12:37 37.618899 -122.388934 42 32ft 0kts
01-Jun-17 12:38 37.619029 -122.388918 324 32ft 1kts
01-Jun-17 12:39 37.619970 -122.391107 297 32ft 11kts
01-Jun-17 12:40 37.622314 -122.390731 68 31ft 13kts
01-Jun-17 12:41 37.621509 -122.386446 118 32ft 18kts
01-Jun-17 12:42 37.618701 -122.379726 116 30ft 22kts
01-Jun-17 12:43 37.615961 -122.372203 117 15ft 24kts
01-Jun-17 12:44 37.612113 -122.364052 119 9ft 27kts
01-Jun-17 12:45 37.611164 -122.358920 23 9ft 10kts
01-Jun-17 12:46 37.613487 -122.362575 297 9ft 86kts
01-Jun-17 12:47 37.633078 -122.407856 294 2191ft 165kts
01-Jun-17 12:48 37.654542 -122.457537 297 4935ft 172kts
01-Jun-17 12:49 37.657982 -122.521202 222 6927ft 250kts
01-Jun-17 12:50 37.586152 -122.518889 163 9398ft 298kts
01-Jun-17 12:51 37.506179 -122.482416 157 11484ft 344kts
01-Jun-17 12:52 37.438205 -122.394387 128 13308ft 380kts
01-Jun-17 12:53 37.372983 -122.293133 128 15357ft 397kts
01-Jun-17 12:54 37.304326 -122.186972 128 17232ft 413kts
01-Jun-17 12:55 37.231392 -122.074561 128 18990ft 428kts
01-Jun-17 12:56 37.156168 -121.959017 127 20614ft 442kts
01-Jun-17 12:57 37.080464 -121.842470 128 22080ft 454kts
01-Jun-17 12:58 37.000441 -121.720220 128 23503ft 464kts
01-Jun-17 12:59 36.918200 -121.595251 128 24804ft 474kts
01-Jun-17 13:00 36.834417 -121.468421 128 25951ft 484kts
01-Jun-17 13:01 36.748511 -121.338874 128 27045ft 494kts
01-Jun-17 13:02 36.660708 -121.206983 128 28072ft 503kts
01-Jun-17 13:03 36.570942 -121.072679 128 29060ft 511kts
01-Jun-17 13:04 36.480550 -120.937968 129 30232ft 511kts
01-Jun-17 13:05 36.392679 -120.805527 130 31265ft 512kts
01-Jun-17 13:06 36.303880 -120.673114 130 32230ft 513kts
01-Jun-17 13:07 36.213328 -120.538632 130 33134ft 514kts
01-Jun-17 13:08 36.122955 -120.404946 131 33997ft 514kts
01-Jun-17 13:09 36.033112 -120.272566 130 34857ft 512kts
01-Jun-17 13:10 35.942072 -120.138947 130 35692ft 511kts
01-Jun-17 13:11 35.851161 -120.006036 130 36477ft 509kts
01-Jun-17 13:12 35.760317 -119.876479 132 36977ft 508kts
01-Jun-17 13:13 35.669595 -119.747282 132 36974ft 506kts
01-Jun-17 13:14 35.577880 -119.617794 132 36976ft 507kts
01-Jun-17 13:15 35.485613 -119.487744 132 36979ft 507kts
01-Jun-17 13:16 35.396131 -119.362405 132 36990ft 506kts
01-Jun-17 13:17 35.305296 -119.234559 132 36988ft 506kts
01-Jun-17 13:18 35.212655 -119.106337 133 36990ft 506kts
01-Jun-17 13:19 35.121703 -118.980781 132 37013ft 506kts
01-Jun-17 13:20 35.031064 -118.855155 134 37104ft 501kts
01-Jun-17 13:21 34.941725 -118.731977 132 37049ft 498kts
01-Jun-17 13:22 34.850427 -118.606850 132 36993ft 499kts
01-Jun-17 13:23 34.762527 -118.486796 132 36929ft 501kts
01-Jun-17 13:24 34.681787 -118.376887 132 36943ft 503kts
01-Jun-17 13:25 34.597519 -118.262547 132 36969ft 504kts
01-Jun-17 13:26 34.508230 -118.141803 132 36982ft 504kts
01-Jun-17 13:27 34.424392 -118.018310 115 36975ft 505kts
01-Jun-17 13:28 34.385174 -117.870079 103 36993ft 501kts
01-Jun-17 13:29 34.354370 -117.740351 104 36960ft 500kts
01-Jun-17 13:30 34.316115 -117.581919 104 36922ft 499kts
01-Jun-17 13:31 34.279963 -117.433069 104 36932ft 500kts
01-Jun-17 13:32 34.241751 -117.276674 104 36949ft 500kts
01-Jun-17 13:33 34.202983 -117.118973 104 36961ft 501kts
01-Jun-17 13:34 34.163946 -116.961146 104 36982ft 500kts
01-Jun-17 13:35 34.125620 -116.805534 106 36965ft 498kts
01-Jun-17 13:36 34.086098 -116.647537 106 36870ft 495kts
01-Jun-17 13:37 34.046217 -116.489179 106 36847ft 494kts
01-Jun-17 13:38 34.006273 -116.331526 105 36862ft 495kts
01-Jun-17 13:39 33.966383 -116.175019 105 36865ft 495kts
01-Jun-17 13:40 33.925900 -116.017124 105 36838ft 496kts
01-Jun-17 13:41 33.885858 -115.861200 106 36837ft 496kts
01-Jun-17 13:42 33.845255 -115.703689 106 36830ft 496kts
01-Jun-17 13:43 33.804198 -115.546343 106 36827ft 496kts
01-Jun-17 13:44 33.762987 -115.389320 106 36834ft 496kts
01-Jun-17 13:45 33.721312 -115.231445 106 36857ft 496kts
01-Jun-17 13:46 33.679533 -115.074091 105 36894ft 495kts
01-Jun-17 13:47 33.637949 -114.918611 105 36648ft 482kts
01-Jun-17 13:48 33.598303 -114.768176 104 34179ft 487kts
01-Jun-17 13:49 33.566840 -114.610182 102 31499ft 492kts
01-Jun-17 13:50 33.535694 -114.451010 104 28277ft 488kts
01-Jun-17 13:51 33.505460 -114.297579 105 25563ft 464kts
01-Jun-17 13:52 33.476784 -114.152975 106 23147ft 430kts
01-Jun-17 13:53 33.449984 -114.019045 106 22581ft 411kts
01-Jun-17 13:54 33.424288 -113.891308 107 21612ft 403kts
01-Jun-17 13:55 33.398946 -113.763693 107 20541ft 392kts
01-Jun-17 13:56 33.373612 -113.638778 107 19396ft 383kts
01-Jun-17 13:57 33.348699 -113.516647 107 18185ft 372kts
01-Jun-17 13:58 33.326294 -113.397225 105 17264ft 366kts
01-Jun-17 13:59 33.306899 -113.285430 105 16619ft 361kts
01-Jun-17 14:00 33.288548 -113.169318 102 15930ft 356kts
01-Jun-17 14:01 33.274531 -113.054472 91 15192ft 339kts
01-Jun-17 14:02 33.277315 -112.943815 90 14318ft 333kts
01-Jun-17 14:03 33.280208 -112.835950 90 13467ft 324kts
01-Jun-17 14:04 33.289042 -112.732511 85 12608ft 308kts
01-Jun-17 14:05 33.298455 -112.631531 85 11790ft 304kts
01-Jun-17 14:06 33.307665 -112.531955 85 11054ft 300kts
01-Jun-17 14:07 33.316770 -112.432598 85 11050ft 302kts
01-Jun-17 14:08 33.325820 -112.333111 85 10955ft 302kts
01-Jun-17 14:09 33.334845 -112.233645 85 10358ft 301kts
01-Jun-17 14:10 33.343520 -112.137238 85 9694ft 281kts
01-Jun-17 14:11 33.346931 -112.050548 92 8999ft 247kts
01-Jun-17 14:12 33.345832 -111.971250 92 8023ft 248kts
01-Jun-17 14:13 33.344571 -111.893647 93 6995ft 246kts
01-Jun-17 14:14 33.343610 -111.818606 93 6030ft 244kts
01-Jun-17 14:15 33.367782 -111.756269 9 5076ft 246kts
01-Jun-17 14:16 33.424906 -111.770889 303 4492ft 222kts
01-Jun-17 14:17 33.440297 -111.830496 269 3754ft 196kts
01-Jun-17 14:18 33.440784 -111.886251 266 2880ft 164kts
01-Jun-17 14:19 33.440829 -111.931762 265 2142ft 130kts
01-Jun-17 14:20 33.440788 -111.973152 265 1499ft 130kts
01-Jun-17 14:21 33.440844 -112.005850 268 1131ft 29kts
01-Jun-17 14:22 33.439484 -112.007327 176 1130ft 6kts
01-Jun-17 14:23 33.439013 -112.004873 88 1131ft 14kts
01-Jun-17 14:24 33.439046 -111.998959 89 1133ft 14kts
01-Jun-17 14:25 33.437203 -111.998269 181 1132ft 9kts
01-Jun-17 14:26 33.436549 -111.998775 269 1131ft 0kts
01-Jun-17 14:27 33.436549 -111.998775 269 1131ft 0kts

Navigation Log

Ident Type
Flight plan parsing failed, navigation log unavailable